Time;durP1;ratioP1;P1;durP2;ratioP2;P2;SDS_P1;SDS_P2;PMS_P1;PMS_P2;Temp;Humidity;BMP_temperature;BMP_pressure;BME280_temperature;BME280_humidity;BME280_pressure;Samples;Min_cycle;Max_cycle;Signal;HPM_P1;HPM_P2
2022/12/31 00:01:50;;;;;;;0.22;0.22;;;16.30;99.90;;;;;;5071239;28;20112;-70
2022/12/31 00:04:15;;;;;;;0.20;0.20;;;16.30;99.90;;;;;;5070851;28;20025;-68
2022/12/31 00:06:41;;;;;;;0.20;0.20;;;16.30;99.90;;;;;;5071168;28;20032;-70
2022/12/31 00:09:07;;;;;;;0.20;0.20;;;16.40;99.90;;;;;;5071142;28;20027;-69
2022/12/31 00:11:34;;;;;;;0.20;0.20;;;16.40;99.90;;;;;;5070646;28;20020;-68
2022/12/31 00:14:00;;;;;;;0.20;0.20;;;16.30;99.90;;;;;;5071041;28;20060;-68
2022/12/31 00:16:32;;;;;;;0.20;0.20;;;16.40;99.90;;;;;;5071009;28;20734;-69
2022/12/31 00:18:59;;;;;;;;;;;16.40;99.90;;;;;;5071411;28;20047;-68
2022/12/31 00:21:29;;;;;;;0.20;0.20;;;16.30;99.90;;;;;;5071019;28;19912;-68
2022/12/31 00:23:54;;;;;;;0.20;0.20;;;16.30;99.90;;;;;;5072450;28;20025;-70
2022/12/31 00:26:23;;;;;;;3.88;3.50;;;16.40;99.90;;;;;;5074761;28;20381;-69
2022/12/31 00:28:52;;;;;;;0.20;0.20;;;16.40;99.90;;;;;;5075046;28;20048;-69
2022/12/31 00:31:30;;;;;;;0.20;0.20;;;16.40;99.90;;;;;;5075008;28;20439;-70
2022/12/31 00:33:56;;;;;;;0.30;0.30;;;16.40;99.90;;;;;;5074641;28;20036;-70
2022/12/31 00:36:33;;;;;;;0.20;0.20;;;16.40;99.90;;;;;;5074632;28;20480;-69
2022/12/31 00:39:00;;;;;;;0.20;0.20;;;16.30;99.90;;;;;;5074894;28;20048;-70
2022/12/31 00:41:27;;;;;;;0.20;0.20;;;16.40;99.90;;;;;;5074894;28;20039;-69
2022/12/31 00:43:53;;;;;;;0.20;0.20;;;16.30;99.90;;;;;;5075164;28;20500;-69
2022/12/31 00:46:20;;;;;;;0.20;0.20;;;16.40;99.90;;;;;;5074903;28;20427;-69
2022/12/31 00:48:46;;;;;;;0.20;0.20;;;16.40;99.90;;;;;;5074713;28;20013;-70
2022/12/31 00:51:15;;;;;;;0.20;0.20;;;16.40;99.90;;;;;;5074623;28;20020;-69
2022/12/31 00:53:42;;;;;;;0.20;0.20;;;16.40;99.90;;;;;;5074510;28;20597;-69
2022/12/31 00:56:11;;;;;;;0.20;0.20;;;16.30;99.90;;;;;;5074509;28;20055;-70
2022/12/31 00:58:37;;;;;;;0.20;0.20;;;16.30;99.90;;;;;;5074558;28;20056;-70
2022/12/31 01:01:20;;;;;;;0.30;0.30;;;16.30;99.90;;;;;;5074190;28;20063;-69
2022/12/31 01:03:47;;;;;;;0.30;0.30;;;16.20;99.90;;;;;;5074106;28;20111;-69
2022/12/31 01:06:13;;;;;;;0.20;0.20;;;16.20;99.90;;;;;;5072957;28;20614;-70
2022/12/31 01:08:39;;;;;;;0.20;0.20;;;16.30;99.90;;;;;;5074292;28;20033;-68
2022/12/31 01:11:17;;;;;;;0.20;0.20;;;16.40;99.90;;;;;;5074019;28;20035;-69
2022/12/31 01:14:02;;;;;;;0.30;0.30;;;16.50;99.90;;;;;;5073973;28;20078;-69
2022/12/31 01:16:34;;;;;;;0.17;0.17;;;16.50;99.90;;;;;;5073942;28;20482;-69
2022/12/31 01:19:03;;;;;;;0.20;0.20;;;16.50;99.90;;;;;;5073730;28;20047;-70
2022/12/31 01:21:30;;;;;;;0.25;0.25;;;16.60;99.90;;;;;;5073890;28;20580;-69
2022/12/31 01:23:57;;;;;;;0.20;0.20;;;16.50;99.90;;;;;;5074097;28;20086;-69
2022/12/31 01:26:22;;;;;;;0.20;0.20;;;16.60;99.90;;;;;;5073670;28;20035;-70
2022/12/31 01:28:48;;;;;;;0.20;0.20;;;16.70;99.90;;;;;;5064630;28;20021;-70
2022/12/31 01:31:16;;;;;;;0.20;0.20;;;17.10;99.90;;;;;;5072481;28;20092;-70
2022/12/31 01:33:42;;;;;;;0.20;0.20;;;18.10;99.90;;;;;;5072457;28;20033;-71
2022/12/31 01:36:22;;;;;;;0.20;0.20;;;17.90;99.90;;;;;;5072338;28;20027;-69
2022/12/31 01:38:49;;;;;;;0.20;0.20;;;17.80;99.90;;;;;;5066921;28;20036;-69
2022/12/31 01:41:20;;;;;;;0.20;0.20;;;17.80;99.90;;;;;;5053356;28;20385;-69
2022/12/31 01:43:55;;;;;;;0.20;0.20;;;17.80;99.90;;;;;;5060566;28;20570;-69
2022/12/31 01:46:33;;;;;;;0.20;0.20;;;17.70;99.90;;;;;;5073423;28;20020;-68
2022/12/31 01:49:09;;;;;;;0.30;0.30;;;17.70;99.90;;;;;;5073440;28;20485;-69
2022/12/31 01:51:35;;;;;;;0.20;0.20;;;17.70;99.90;;;;;;5073279;28;20370;-69
2022/12/31 01:54:04;;;;;;;0.20;0.20;;;17.60;99.90;;;;;;5072395;28;20036;-69
2022/12/31 01:56:30;;;;;;;0.20;0.20;;;17.60;99.90;;;;;;5061379;28;20025;-69
2022/12/31 01:58:57;;;;;;;0.10;0.10;;;17.60;99.90;;;;;;5054148;28;20031;-69
2022/12/31 02:01:29;;;;;;;0.20;0.20;;;17.70;99.90;;;;;;5054538;28;20377;-69
2022/12/31 02:03:56;;;;;;;0.20;0.20;;;17.70;99.90;;;;;;5052914;28;20116;-69
2022/12/31 02:06:43;;;;;;;0.20;0.20;;;17.70;99.90;;;;;;5053051;28;20016;-69
2022/12/31 02:09:10;;;;;;;0.20;0.20;;;17.70;99.90;;;;;;5068637;28;20076;-69
2022/12/31 02:11:36;;;;;;;0.20;0.20;;;17.80;99.90;;;;;;5072598;28;20032;-69
2022/12/31 02:14:10;;;;;;;0.20;0.20;;;17.80;99.90;;;;;;5072826;28;20032;-69
2022/12/31 02:16:41;;;;;;;0.20;0.20;;;17.80;99.90;;;;;;5072774;28;20025;-68
2022/12/31 02:19:21;;;;;;;0.20;0.20;;;17.80;99.90;;;;;;5071419;28;20415;-68
2022/12/31 02:21:53;;;;;;;0.20;0.20;;;17.90;99.90;;;;;;5072900;28;20055;-67
2022/12/31 02:24:45;;;;;;;0.20;0.20;;;17.90;99.90;;;;;;5072677;28;20484;-69
2022/12/31 02:27:28;;;;;;;0.20;0.20;;;18.00;99.90;;;;;;5072786;28;20029;-69
2022/12/31 02:30:00;;;;;;;0.20;0.20;;;18.00;99.90;;;;;;5072764;28;20435;-69
2022/12/31 02:32:38;;;;;;;0.20;0.20;;;18.00;99.90;;;;;;5072516;28;20051;-68
2022/12/31 02:35:32;;;;;;;0.20;0.20;;;18.10;99.90;;;;;;5072384;28;20108;-68
2022/12/31 02:38:04;;;;;;;0.20;0.20;;;18.10;99.90;;;;;;5058194;28;20036;-68
2022/12/31 02:40:33;;;;;;;0.20;0.20;;;18.20;99.90;;;;;;5072336;28;20575;-68
2022/12/31 02:42:58;;;;;;;0.20;0.20;;;18.20;99.90;;;;;;5072234;28;20032;-68
2022/12/31 02:45:32;;;;;;;0.20;0.20;;;18.30;99.90;;;;;;5072002;28;20039;-69
2022/12/31 02:48:12;;;;;;;0.20;0.20;;;18.30;99.90;;;;;;5071554;28;20016;-69
2022/12/31 02:50:54;;;;;;;0.20;0.20;;;18.20;99.90;;;;;;5072190;28;20030;-68
2022/12/31 02:53:23;;;;;;;0.20;0.20;;;18.30;99.90;;;;;;5071956;28;20025;-67
2022/12/31 02:56:04;;;;;;;0.20;0.20;;;18.30;99.90;;;;;;5072097;28;20024;-68
2022/12/31 03:04:31;;;;;;;0.20;0.20;;;18.30;99.90;;;;;;5071711;28;20077;-68
2022/12/31 03:07:00;;;;;;;0.20;0.20;;;18.20;99.90;;;;;;5071786;28;20052;-68
2022/12/31 03:09:26;;;;;;;0.20;0.20;;;18.30;99.90;;;;;;5071847;28;20606;-68
2022/12/31 03:14:36;;;;;;;0.43;0.43;;;18.30;99.90;;;;;;5071911;28;20089;-68
2022/12/31 03:17:02;;;;;;;0.20;0.20;;;18.40;99.90;;;;;;5071561;28;20523;-68
2022/12/31 03:22:27;;;;;;;0.20;0.20;;;18.30;99.90;;;;;;5071551;28;20036;-69
2022/12/31 03:27:45;;;;;;;0.20;0.20;;;18.50;99.90;;;;;;5071878;28;20040;-69
2022/12/31 03:30:13;;;;;;;0.20;0.20;;;18.70;99.90;;;;;;5071360;28;20043;-68
2022/12/31 03:32:41;;;;;;;0.63;0.63;;;18.90;99.90;;;;;;5071322;28;20116;-69
2022/12/31 03:35:07;;;;;;;0.20;0.20;;;19.00;99.90;;;;;;5071449;28;20028;-68
2022/12/31 03:37:33;;;;;;;0.20;0.20;;;19.10;99.90;;;;;;5070089;28;20408;-68
2022/12/31 03:39:59;;;;;;;0.20;0.20;;;19.20;99.90;;;;;;5071365;28;20027;-69
2022/12/31 03:42:25;;;;;;;0.10;0.10;;;19.30;99.90;;;;;;5071252;28;20085;-68
2022/12/31 03:44:50;;;;;;;0.20;0.20;;;19.30;99.90;;;;;;5071150;28;20070;-70
2022/12/31 03:47:16;;;;;;;0.20;0.20;;;19.40;99.90;;;;;;5071347;28;20427;-70
2022/12/31 03:49:42;;;;;;;0.20;0.20;;;19.60;99.90;;;;;;5069892;28;20020;-70
2022/12/31 03:52:07;;;;;;;0.20;0.20;;;19.50;99.90;;;;;;5071144;28;20032;-69
2022/12/31 03:54:33;;;;;;;0.20;0.20;;;19.60;99.90;;;;;;5071056;28;20029;-70
2022/12/31 03:56:59;;;;;;;0.20;0.20;;;19.60;99.90;;;;;;5070997;28;20098;-69
2022/12/31 03:59:25;;;;;;;0.20;0.20;;;19.70;99.90;;;;;;5071325;28;20031;-69
2022/12/31 04:01:50;;;;;;;0.15;0.15;;;19.70;99.90;;;;;;5072128;28;20020;-71
2022/12/31 04:04:16;;;;;;;0.20;0.20;;;20.00;99.90;;;;;;5072706;28;20361;-70
2022/12/31 04:06:42;;;;;;;2.72;1.35;;;19.80;99.90;;;;;;5069755;28;20027;-70
2022/12/31 04:09:07;;;;;;;1.10;1.10;;;19.90;99.90;;;;;;5071068;28;20032;-70
2022/12/31 04:11:33;;;;;;;0.20;0.20;;;19.90;99.90;;;;;;5070665;28;20511;-69
2022/12/31 04:13:59;;;;;;;0.20;0.20;;;20.00;99.90;;;;;;5071011;28;20035;-70
2022/12/31 04:16:24;;;;;;;0.20;0.20;;;19.90;99.90;;;;;;5070943;28;20029;-69
2022/12/31 04:18:50;;;;;;;0.20;0.20;;;19.90;99.90;;;;;;5070889;28;20027;-69
2022/12/31 04:21:16;;;;;;;0.20;0.20;;;19.90;99.90;;;;;;5070992;28;20027;-69
2022/12/31 04:23:41;;;;;;;1.10;1.10;;;19.80;99.90;;;;;;5071046;28;20415;-71
2022/12/31 04:26:07;;;;;;;0.20;0.20;;;19.20;99.90;;;;;;5070539;28;20035;-70
2022/12/31 04:28:33;;;;;;;0.20;0.20;;;18.90;99.90;;;;;;5071187;28;20036;-70
2022/12/31 04:30:58;;;;;;;0.50;0.50;;;18.90;99.90;;;;;;5070834;28;20481;-70
2022/12/31 04:33:24;;;;;;;0.20;0.20;;;19.70;99.90;;;;;;5070836;28;20119;-71
2022/12/31 04:35:50;;;;;;;0.10;0.10;;;21.20;99.90;;;;;;5071031;28;20029;-70
2022/12/31 04:38:15;;;;;;;0.20;0.20;;;21.00;99.90;;;;;;5070979;28;20457;-70
2022/12/31 04:43:27;;;;;;;0.20;0.20;;;20.70;99.90;;;;;;5071443;28;20039;-72
2022/12/31 04:45:53;;;;;;;0.20;0.20;;;20.90;99.90;;;;;;5069948;28;20025;-72
2022/12/31 04:48:19;;;;;;;0.20;0.20;;;20.80;99.90;;;;;;5071510;28;20484;-72
2022/12/31 04:50:45;;;;;;;0.75;0.75;;;20.80;99.90;;;;;;5071195;28;20657;-71
2022/12/31 04:53:11;;;;;;;0.20;0.20;;;21.20;99.90;;;;;;5071375;28;20074;-73
2022/12/31 04:55:37;;;;;;;0.20;0.20;;;21.30;99.90;;;;;;5071195;28;20028;-71
2022/12/31 04:58:03;;;;;;;0.20;0.20;;;21.40;99.90;;;;;;5071003;28;20028;-71
2022/12/31 05:00:29;;;;;;;1.00;1.00;;;21.50;99.90;;;;;;5071055;28;20032;-71
2022/12/31 05:02:55;;;;;;;0.17;0.17;;;21.30;99.90;;;;;;5069208;28;20059;-70
2022/12/31 05:05:20;;;;;;;0.60;0.60;;;21.30;99.90;;;;;;5070469;28;20025;-69
2022/12/31 05:07:46;;;;;;;0.85;0.75;;;21.20;99.90;;;;;;5070433;28;20021;-69
2022/12/31 05:10:11;;;;;;;0.10;0.10;;;21.20;99.90;;;;;;5072620;28;20025;-69
2022/12/31 05:12:37;;;;;;;0.28;0.28;;;21.20;99.90;;;;;;5073799;28;20115;-70
2022/12/31 05:15:03;;;;;;;0.10;0.10;;;21.30;99.90;;;;;;5072851;28;20023;-71
2022/12/31 05:17:29;;;;;;;0.20;0.20;;;21.30;99.90;;;;;;5073849;28;20039;-70
2022/12/31 05:19:54;;;;;;;0.20;0.20;;;21.40;99.90;;;;;;5074055;28;20025;-70
2022/12/31 05:22:29;;;;;;;0.22;0.22;;;21.40;99.90;;;;;;5073870;28;20017;-71
2022/12/31 05:24:58;;;;;;;0.10;0.10;;;21.30;99.90;;;;;;5073707;28;20536;-69
2022/12/31 05:27:26;;;;;;;18.00;4.03;;;21.20;99.90;;;;;;5073760;28;20027;-69
2022/12/31 05:29:51;;;;;;;0.20;0.20;;;21.20;99.90;;;;;;5072558;28;20488;-69
2022/12/31 05:32:17;;;;;;;0.20;0.20;;;21.10;99.90;;;;;;5073410;28;20024;-70
2022/12/31 05:34:43;;;;;;;0.10;0.10;;;21.00;99.90;;;;;;5073565;28;20048;-68
2022/12/31 05:37:09;;;;;;;0.20;0.20;;;21.00;99.90;;;;;;5073635;28;20012;-69
2022/12/31 05:39:34;;;;;;;0.20;0.20;;;20.90;99.90;;;;;;5073685;28;20495;-67
2022/12/31 05:42:00;;;;;;;0.30;0.30;;;20.90;99.90;;;;;;5073674;28;20028;-67
2022/12/31 05:44:26;;;;;;;0.30;0.30;;;21.00;99.90;;;;;;5073657;28;20070;-70
2022/12/31 05:46:51;;;;;;;7.40;2.05;;;21.10;99.90;;;;;;5072169;28;20020;-69
2022/12/31 05:49:17;;;;;;;0.30;0.30;;;21.20;99.90;;;;;;5073301;28;20025;-70
2022/12/31 05:51:43;;;;;;;0.30;0.30;;;21.00;99.90;;;;;;5073518;28;20078;-69
2022/12/31 05:54:08;;;;;;;0.20;0.20;;;20.90;99.90;;;;;;5073337;28;20490;-70
2022/12/31 05:56:34;;;;;;;0.20;0.20;;;20.70;99.90;;;;;;5064468;28;20029;-69
2022/12/31 05:59:00;;;;;;;9.82;1.40;;;20.60;99.90;;;;;;5053796;28;20025;-69
2022/12/31 06:01:25;;;;;;;3.53;0.43;;;20.60;99.90;;;;;;5053207;28;20484;-68
2022/12/31 06:03:51;;;;;;;0.20;0.20;;;20.50;99.90;;;;;;5052773;28;20028;-67
2022/12/31 06:06:17;;;;;;;0.20;0.20;;;20.60;99.90;;;;;;5053521;28;20025;-67
2022/12/31 06:08:42;;;;;;;8.07;0.77;;;20.50;99.90;;;;;;5054039;28;20041;-68
2022/12/31 06:11:08;;;;;;;0.20;0.20;;;20.50;99.90;;;;;;5053095;28;20110;-69
2022/12/31 06:13:34;;;;;;;0.20;0.20;;;20.40;99.90;;;;;;5052803;28;20049;-68
2022/12/31 06:16:07;;;;;;;0.20;0.20;;;20.30;99.90;;;;;;5069357;28;20392;-69
2022/12/31 06:18:33;;;;;;;0.20;0.20;;;20.30;99.90;;;;;;5072702;28;20376;-69
2022/12/31 06:20:59;;;;;;;0.93;0.93;;;20.40;99.90;;;;;;5072724;28;20025;-69
2022/12/31 06:23:25;;;;;;;0.20;0.20;;;20.40;99.90;;;;;;5072844;28;20487;-71
2022/12/31 06:25:50;;;;;;;0.20;0.20;;;20.50;99.90;;;;;;5072831;28;20036;-70
2022/12/31 06:28:16;;;;;;;0.20;0.20;;;20.50;99.90;;;;;;5072755;28;20020;-71
2022/12/31 06:30:42;;;;;;;0.30;0.30;;;20.70;99.90;;;;;;5072713;28;20550;-70
2022/12/31 06:33:07;;;;;;;0.65;0.52;;;20.70;99.90;;;;;;5070196;28;20033;-69
2022/12/31 06:35:33;;;;;;;0.20;0.20;;;20.70;99.90;;;;;;5071172;28;20020;-69
2022/12/31 06:37:58;;;;;;;0.35;0.35;;;20.60;99.90;;;;;;5072359;28;20021;-68
2022/12/31 06:40:24;;;;;;;0.20;0.20;;;20.70;99.90;;;;;;5072581;28;20021;-69
2022/12/31 06:42:50;;;;;;;0.20;0.20;;;20.70;99.90;;;;;;5072505;28;20120;-68
2022/12/31 06:45:16;;;;;;;0.20;0.20;;;20.70;99.90;;;;;;5072642;28;20491;-69
2022/12/31 06:47:41;;;;;;;0.20;0.20;;;20.80;99.90;;;;;;5072169;28;20473;-69
2022/12/31 06:50:07;;;;;;;1.98;1.85;;;20.70;99.90;;;;;;5071405;28;20032;-68
2022/12/31 06:52:33;;;;;;;1.33;1.23;;;20.70;99.90;;;;;;5054561;28;20021;-70
2022/12/31 06:54:59;;;;;;;0.20;0.20;;;20.70;99.90;;;;;;5052145;28;20032;-68
2022/12/31 06:57:25;;;;;;;0.22;0.22;;;20.60;99.90;;;;;;5052013;28;20044;-70
2022/12/31 06:59:51;;;;;;;0.20;0.20;;;20.90;99.90;;;;;;5051941;28;20033;-70
2022/12/31 07:02:25;;;;;;;0.20;0.20;;;21.10;99.90;;;;;;5052070;28;20040;-69
2022/12/31 07:04:50;;;;;;;0.32;0.32;;;21.00;99.90;;;;;;5051923;28;20028;-70
2022/12/31 07:07:23;;;;;;;0.10;0.10;;;20.80;99.90;;;;;;5057723;28;20020;-69
2022/12/31 07:10:25;;;;;;;0.20;0.20;;;20.80;99.90;;;;;;5072281;28;20029;-70
2022/12/31 07:13:13;;;;;;;0.20;0.20;;;20.90;99.90;;;;;;5072001;28;20527;-68
2022/12/31 07:16:04;;;;;;;0.20;0.20;;;20.90;99.90;;;;;;5034651;28;20032;-69
2022/12/31 07:18:41;;;;;;;1.23;0.88;;;21.00;99.90;;;;;;5071538;28;20030;-69
2022/12/31 07:21:15;;;;;;;1.30;1.20;;;21.20;99.90;;;;;;5071763;28;20510;-69
2022/12/31 07:23:41;;;;;;;0.20;0.20;;;21.20;99.90;;;;;;5072873;28;20029;-70
2022/12/31 07:26:18;;;;;;;0.20;0.20;;;21.30;99.90;;;;;;5074277;28;20028;-70
2022/12/31 07:29:10;;;;;;;0.20;0.20;;;21.10;99.90;;;;;;5073189;28;20092;-70
2022/12/31 07:31:48;;;;;;;0.32;0.32;;;21.10;99.90;;;;;;5074113;28;20032;-69
2022/12/31 07:34:33;;;;;;;0.45;0.45;;;21.20;99.90;;;;;;5072157;28;20035;-70
2022/12/31 07:37:09;;;;;;;0.20;0.20;;;21.30;99.90;;;;;;5071662;28;20039;-69
2022/12/31 07:39:55;;;;;;;0.20;0.20;;;21.40;99.90;;;;;;5071492;28;20028;-69
2022/12/31 07:42:42;;;;;;;0.20;0.20;;;21.60;99.90;;;;;;5070610;28;20029;-69
2022/12/31 07:45:23;;;;;;;0.28;0.28;;;21.50;99.90;;;;;;5071674;28;20016;-69
2022/12/31 07:47:49;;;;;;;0.20;0.20;;;21.50;99.90;;;;;;5071389;28;20082;-69
2022/12/31 07:50:16;;;;;;;0.45;0.45;;;21.60;99.90;;;;;;5068921;28;20032;-69
2022/12/31 07:52:43;;;;;;;0.20;0.20;;;21.40;99.90;;;;;;5052175;28;20017;-69
2022/12/31 07:55:09;;;;;;;0.20;0.20;;;21.40;99.90;;;;;;5050999;28;20485;-69
2022/12/31 07:57:46;;;;;;;0.20;0.20;;;21.40;99.90;;;;;;5051729;28;20071;-69
2022/12/31 08:00:14;;;;;;;0.40;0.40;;;21.50;99.90;;;;;;5051206;28;20021;-69
2022/12/31 08:03:02;;;;;;;6.45;1.00;;;21.50;99.90;;;;;;5050842;28;20036;-68
2022/12/31 08:05:43;;;;;;;0.20;0.20;;;21.30;99.90;;;;;;5051095;28;20017;-67
2022/12/31 08:08:37;;;;;;;0.20;0.20;;;21.40;99.90;;;;;;5056035;28;20048;-69
2022/12/31 08:11:34;;;;;;;0.20;0.20;;;21.30;99.90;;;;;;5065624;28;20043;-68
2022/12/31 08:14:01;;;;;;;0.20;0.20;;;21.10;99.90;;;;;;5061238;28;20040;-69
2022/12/31 08:16:27;;;;;;;0.20;0.20;;;21.10;99.90;;;;;;5072214;28;20017;-69
2022/12/31 08:18:53;;;;;;;0.20;0.20;;;21.10;99.90;;;;;;5071690;28;20024;-70
2022/12/31 08:21:27;;;;;;;0.20;0.20;;;20.90;99.90;;;;;;5069363;28;20385;-70
2022/12/31 08:24:08;;;;;;;0.20;0.20;;;20.90;99.90;;;;;;5069912;28;20165;-70
2022/12/31 08:26:41;;;;;;;0.25;0.25;;;21.00;99.90;;;;;;5068578;28;20158;-69
2022/12/31 08:29:34;;;;;;;0.20;0.20;;;21.00;99.90;;;;;;5052163;28;20017;-68
2022/12/31 08:32:32;;;;;;;2.92;1.38;;;20.80;99.90;;;;;;5050097;28;20121;-70
2022/12/31 08:35:11;;;;;;;0.20;0.20;;;20.90;99.90;;;;;;5021577;28;20048;-69
2022/12/31 08:37:41;;;;;;;0.82;0.82;;;20.80;99.90;;;;;;5050885;28;20078;-70
2022/12/31 08:40:28;;;;;;;0.20;0.20;;;21.00;99.90;;;;;;5050950;28;20100;-71
2022/12/31 08:43:25;;;;;;;0.20;0.20;;;20.70;99.90;;;;;;5063467;28;20037;-69
2022/12/31 08:45:52;;;;;;;0.20;0.20;;;20.50;99.90;;;;;;5069316;28;20012;-69
2022/12/31 08:48:25;;;;;;;0.20;0.20;;;20.60;99.90;;;;;;5074586;28;20043;-69
2022/12/31 08:50:52;;;;;;;0.20;0.20;;;20.50;99.90;;;;;;5074956;28;20028;-69
2022/12/31 08:53:18;;;;;;;0.20;0.20;;;20.40;99.90;;;;;;5074627;28;20032;-69
2022/12/31 08:55:45;;;;;;;0.20;0.20;;;20.40;99.90;;;;;;5074600;28;20028;-69
2022/12/31 08:58:29;;;;;;;0.32;0.32;;;20.70;99.90;;;;;;5072168;28;20035;-69
2022/12/31 09:00:58;;;;;;;0.40;0.40;;;20.40;99.90;;;;;;5072425;28;20059;-68
2022/12/31 09:03:56;;;;;;;1.90;1.40;;;20.50;99.90;;;;;;5070492;28;20024;-69
2022/12/31 09:06:34;;;;;;;0.20;0.20;;;20.40;99.90;;;;;;5064490;28;20032;-70
2022/12/31 09:09:41;;;;;;;0.20;0.20;;;20.50;99.90;;;;;;5072876;28;20103;-70
2022/12/31 09:12:17;;;;;;;0.30;0.30;;;20.80;99.90;;;;;;4991830;28;20108;-70
2022/12/31 09:15:26;;;;;;;0.20;0.20;;;20.60;99.90;;;;;;5061341;28;20634;-70
2022/12/31 09:17:52;;;;;;;0.93;0.93;;;20.50;99.90;;;;;;5030179;28;20094;-71
2022/12/31 09:20:44;;;;;;;0.20;0.20;;;20.70;99.90;;;;;;5072480;28;20020;-68
2022/12/31 09:23:11;;;;;;;;;;;20.90;99.90;;;;;;5053077;28;20120;-71
2022/12/31 09:26:01;;;;;;;0.20;0.20;;;20.50;99.90;;;;;;5054165;28;20449;-73
2022/12/31 09:28:46;;;;;;;0.20;0.20;;;20.80;99.90;;;;;;5053354;28;20044;-73
2022/12/31 09:31:31;;;;;;;0.20;0.20;;;20.50;99.90;;;;;;5072958;28;20507;-72
2022/12/31 09:34:25;;;;;;;4.15;0.82;;;20.70;99.90;;;;;;5073653;28;20094;-74
2022/12/31 09:36:58;;;;;;;1.15;1.15;;;20.70;99.90;;;;;;5072611;28;20024;-84
2022/12/31 09:39:33;;;;;;;0.20;0.20;;;20.50;99.90;;;;;;5055295;28;20032;-79
2022/12/31 09:42:29;;;;;;;0.20;0.20;;;20.20;99.90;;;;;;5055692;28;20025;-80
2022/12/31 09:45:30;;;;;;;4.18;1.85;;;20.20;99.90;;;;;;5061713;28;20024;-77
2022/12/31 09:48:30;;;;;;;9.82;3.75;;;20.20;99.90;;;;;;5074191;28;20497;-77
2022/12/31 09:50:58;;;;;;;0.20;0.20;;;20.20;99.90;;;;;;5072438;28;20032;-79
2022/12/31 09:53:33;;;;;;;0.20;0.20;;;20.20;99.90;;;;;;5073176;28;20020;-76
2022/12/31 09:56:31;;;;;;;0.20;0.20;;;20.20;99.90;;;;;;5064253;28;20024;-76
2022/12/31 09:59:09;;;;;;;0.20;0.20;;;20.30;99.90;;;;;;5037355;28;20081;-77
2022/12/31 10:01:42;;;;;;;0.20;0.20;;;20.30;99.90;;;;;;5085642;28;20020;-78
2022/12/31 10:04:10;;;;;;;1.55;1.50;;;20.60;99.90;;;;;;5084568;28;20033;-79
2022/12/31 10:07:02;;;;;;;0.20;0.20;;;21.00;99.90;;;;;;5079842;28;20035;-77
2022/12/31 10:09:38;;;;;;;1.85;1.05;;;21.20;99.90;;;;;;5082954;28;20087;-76
2022/12/31 10:12:25;;;;;;;0.20;0.20;;;21.20;99.90;;;;;;5093031;28;20378;-76
2022/12/31 10:15:03;;;;;;;0.20;0.20;;;21.20;99.90;;;;;;5075605;28;20047;-76
2022/12/31 10:18:02;;;;;;;11.60;6.43;;;21.20;99.90;;;;;;5060193;28;20025;-81
2022/12/31 10:20:53;;;;;;;0.20;0.20;;;21.50;99.90;;;;;;5078433;28;20004;-81
2022/12/31 10:23:57;;;;;;;0.20;0.20;;;21.60;99.90;;;;;;5062900;28;20120;-79
2022/12/31 10:26:35;;;;;;;0.20;0.20;;;21.70;99.90;;;;;;5056715;28;20032;-80
2022/12/31 10:29:09;;;;;;;0.20;0.20;;;21.70;99.90;;;;;;5066836;28;20040;-83
2022/12/31 10:31:50;;;;;;;0.20;0.20;;;21.70;99.90;;;;;;5066579;28;20024;-81
2022/12/31 10:34:36;;;;;;;0.20;0.20;;;21.70;99.90;;;;;;5072773;28;20036;-80
2022/12/31 10:37:13;;;;;;;0.20;0.20;;;21.70;99.90;;;;;;5072149;28;20017;-81
2022/12/31 10:40:17;;;;;;;9.05;1.65;;;21.70;99.90;;;;;;5072733;28;20028;-78
2022/12/31 10:43:05;;;;;;;0.20;0.20;;;21.70;99.90;;;;;;5069403;28;20035;-75
2022/12/31 10:45:43;;;;;;;0.20;0.20;;;21.70;99.90;;;;;;5014922;28;20068;-76
2022/12/31 10:48:45;;;;;;;3.55;1.17;;;21.60;99.90;;;;;;5058116;28;20372;-77
2022/12/31 10:51:33;;;;;;;;;;;21.60;99.90;;;;;;5052612;28;20029;-77
2022/12/31 10:54:37;;;;;;;0.10;0.10;;;21.70;99.90;;;;;;5066666;28;19912;-74
2022/12/31 10:57:22;;;;;;;0.43;0.43;;;21.80;99.90;;;;;;5024334;28;20078;-74
2022/12/31 11:00:09;;;;;;;0.40;0.40;;;22.10;99.90;;;;;;5071814;28;20017;-74
2022/12/31 11:03:09;;;;;;;0.20;0.20;;;22.00;99.90;;;;;;5071810;28;20032;-74
2022/12/31 11:06:14;;;;;;;0.20;0.20;;;22.00;99.90;;;;;;5072057;28;20059;-75
2022/12/31 11:08:57;;;;;;;13.25;2.05;;;21.90;99.90;;;;;;5070569;28;20389;-75
2022/12/31 11:11:48;;;;;;;0.20;0.20;;;21.80;99.90;;;;;;5071899;28;20423;-76
2022/12/31 11:14:37;;;;;;;1.00;1.00;;;21.60;99.90;;;;;;5061069;28;20032;-76
2022/12/31 11:17:16;;;;;;;0.77;0.77;;;21.40;99.90;;;;;;5072044;28;20377;-76
2022/12/31 11:20:22;;;;;;;0.85;0.77;;;21.20;99.90;;;;;;5068872;28;20035;-77
2022/12/31 11:22:51;;;;;;;0.47;0.47;;;21.10;99.90;;;;;;5051789;28;20099;-79
2022/12/31 11:25:37;;;;;;;18.05;4.00;;;21.20;99.90;;;;;;5053359;28;20487;-80
2022/12/31 11:28:30;;;;;;;0.20;0.20;;;21.20;99.90;;;;;;5055309;28;20027;-78
2022/12/31 11:31:09;;;;;;;23.77;1.17;;;21.10;99.90;;;;;;5066020;28;20112;-80
2022/12/31 11:33:53;;;;;;;0.30;0.30;;;21.20;99.90;;;;;;5068070;28;20037;-75
2022/12/31 11:36:42;;;;;;;0.20;0.20;;;21.10;99.90;;;;;;5067321;28;20024;-80
2022/12/31 11:39:29;;;;;;;0.20;0.20;;;21.20;99.90;;;;;;5068736;28;20021;-78
2022/12/31 11:42:16;;;;;;;0.32;0.30;;;21.40;99.90;;;;;;5069834;28;20055;-80
2022/12/31 11:44:58;;;;;;;8.68;3.92;;;21.60;99.90;;;;;;5069468;28;20056;-82
2022/12/31 11:47:51;;;;;;;0.20;0.20;;;21.50;99.90;;;;;;5067733;28;20016;-82
2022/12/31 11:50:42;;;;;;;1.35;1.30;;;21.40;99.90;;;;;;5068895;28;20029;-82
2022/12/31 11:53:24;;;;;;;8.50;3.03;;;21.60;99.90;;;;;;5070610;28;20066;-87
2022/12/31 11:56:23;;;;;;;0.50;0.50;;;21.50;99.90;;;;;;5069139;28;20029;-82
2022/12/31 11:58:52;;;;;;;0.30;0.30;;;21.70;99.90;;;;;;5069264;28;20021;-84
2022/12/31 12:01:25;;;;;;;0.52;0.52;;;21.90;99.90;;;;;;5067660;28;20024;-79
2022/12/31 12:03:50;;;;;;;0.22;0.22;;;22.00;99.90;;;;;;5066690;28;20592;-83
2022/12/31 12:06:22;;;;;;;3.08;2.55;;;22.20;99.90;;;;;;5070372;28;20523;-85
2022/12/31 12:08:48;;;;;;;1.50;1.40;;;22.50;99.90;;;;;;5065851;28;20025;-86
2022/12/31 12:11:21;;;;;;;15.52;1.77;;;22.90;99.90;;;;;;5070476;28;20449;-86
2022/12/31 12:13:47;;;;;;;0.30;0.30;;;23.00;99.90;;;;;;5059788;28;20127;-77
2022/12/31 12:16:14;;;;;;;0.43;0.43;;;23.00;99.90;;;;;;5067313;28;20454;-79
2022/12/31 12:18:46;;;;;;;7.43;1.02;;;22.90;99.90;;;;;;5071701;28;20093;-81
2022/12/31 12:21:24;;;;;;;0.20;0.20;;;22.60;99.90;;;;;;5075198;28;20366;-81
2022/12/31 12:24:15;;;;;;;5.80;1.13;;;22.40;99.90;;;;;;5066707;28;20056;-83
2022/12/31 12:26:43;;;;;;;2.53;2.22;;;22.20;99.90;;;;;;5047017;28;20033;-81
2022/12/31 12:29:17;;;;;;;1.60;1.50;;;21.90;99.90;;;;;;5053477;28;20137;-81
2022/12/31 12:31:57;;;;;;;0.20;0.20;;;21.80;99.90;;;;;;5074182;28;20024;-83
2022/12/31 12:34:29;;;;;;;8.85;2.47;;;21.70;99.90;;;;;;5085772;28;20082;-83
2022/12/31 12:36:55;;;;;;;8.35;3.95;;;21.80;99.90;;;;;;5078759;28;20017;-83
2022/12/31 12:39:32;;;;;;;1.00;1.00;;;21.70;99.90;;;;;;5071885;28;20072;-82
2022/12/31 12:42:14;;;;;;;0.30;0.30;;;21.60;99.90;;;;;;5071318;28;20025;-83
2022/12/31 12:44:43;;;;;;;0.50;0.50;;;21.50;99.90;;;;;;5069943;28;20025;-83
2022/12/31 12:47:14;;;;;;;5.03;4.70;;;21.60;99.90;;;;;;5074359;28;20022;-83
2022/12/31 12:49:45;;;;;;;1.17;1.17;;;21.60;99.90;;;;;;5060412;28;20025;-84
2022/12/31 12:52:29;;;;;;;0.20;0.20;;;21.60;99.90;;;;;;5056302;28;20040;-83
2022/12/31 12:55:01;;;;;;;0.30;0.30;;;21.60;99.90;;;;;;5057414;28;20393;-82
2022/12/31 12:57:50;;;;;;;0.32;0.32;;;21.70;99.90;;;;;;5055129;28;20104;-85
2022/12/31 13:00:21;;;;;;;0.40;0.40;;;21.60;99.90;;;;;;5055131;28;20029;-85
2022/12/31 13:03:00;;;;;;;1.10;0.63;;;21.60;99.90;;;;;;5056796;28;20052;-88
2022/12/31 13:05:34;;;;;;;0.30;0.30;;;21.50;99.90;;;;;;5054657;28;20343;-79
2022/12/31 13:08:22;;;;;;;0.30;0.30;;;21.70;99.90;;;;;;5054348;28;20025;-82
2022/12/31 13:10:53;;;;;;;21.10;1.15;;;21.80;99.90;;;;;;5054168;28;20021;-78
2022/12/31 13:13:28;;;;;;;4.10;3.88;;;21.70;99.90;;;;;;5054102;28;20127;-80
2022/12/31 13:16:12;;;;;;;0.30;0.30;;;21.80;99.90;;;;;;5053121;28;20044;-87
2022/12/31 13:19:07;;;;;;;0.90;0.90;;;22.00;99.90;;;;;;5059719;28;20028;-93
2022/12/31 13:21:33;;;;;;;0.20;0.20;;;22.10;99.90;;;;;;5057292;28;20040;-88
2022/12/31 13:24:19;;;;;;;0.20;0.20;;;22.30;99.90;;;;;;5054852;28;20436;-84
2022/12/31 13:27:14;;;;;;;0.93;0.88;;;22.40;99.90;;;;;;5062230;28;20025;-90
2022/12/31 13:29:43;;;;;;;6.32;1.45;;;22.30;99.90;;;;;;5053982;28;20025;-86
2022/12/31 13:32:16;;;;;;;0.30;0.30;;;22.40;99.90;;;;;;5054105;28;20025;-90
2022/12/31 13:34:45;;;;;;;0.20;0.20;;;22.50;99.90;;;;;;5054282;28;20485;-90
2022/12/31 13:37:32;;;;;;;0.30;0.30;;;22.50;99.90;;;;;;5054569;28;20029;-85
2022/12/31 13:40:10;;;;;;;1.05;1.05;;;22.60;99.90;;;;;;5053863;28;20434;-82
2022/12/31 13:42:45;;;;;;;11.98;2.05;;;22.60;99.90;;;;;;5064640;28;20475;-81